MSC Preziosa — 3FOA6 — position and weather

sailwx.info

Track history (hours):
 
Tides and Currents Weather Stations Pressure Air Temp Water Temp Dewpoint Dewpoint Depression Visibility Wind Speed Wind Dir Waves Ship Positions

MSC Preziosa

Last reported at 2017-Sep-22 02:00 UTC. Time now 2017-Sep-23 09:32 UTC.
Position N 52°26' E 003°46'.

Length 333 m; draft 8.6 m.

Type: Ship. MMSI: 371861000.

Date/timePositionNaut miles runAvg speedWind from/ knotsBaromVisibWave heightAir tempDewpointWater temp
2017-Sep-22 02:00N 52°26' E 003°46'712.8
2017-Sep-22 01:30N 52°24' E 003°35'611.7
2017-Sep-22 01:00N 52°21' E 003°27'713.6
2017-Sep-22 00:30N 52°16' E 003°20'713.1
2017-Sep-21 23:56N 52°11' E 003°11'2816.3
2017-Sep-21 22:13N 51°52' E 002°37'616.7
2017-Sep-21 21:53N 51°46' E 002°38'616.5
2017-Sep-21 21:30N 51°41' E 002°42'815.5
2017-Sep-21 21:00N 51°33' E 002°42'815.9
2017-Sep-21 20:31N 51°25' E 002°43'612.6
2017-Sep-21 20:00N 51°25' E 002°53'918.2
2017-Sep-21 19:31N 51°24' E 003°08'4 8.0
2017-Sep-21 18:58N 51°20' E 003°12'0 0.0
2017-Sep-21 18:28N 51°20' E 003°12'0 0.0
2017-Sep-21 17:58N 51°20' E 003°12'0 0.0
2017-Sep-21 17:28N 51°20' E 003°12'0 0.0
2017-Sep-21 16:58N 51°20' E 003°12'0 0.0
2017-Sep-21 16:28N 51°20' E 003°12'0 0.0
2017-Sep-21 15:58N 51°20' E 003°12'0 0.0
2017-Sep-21 15:28N 51°20' E 003°12'0 0.0
2017-Sep-21 14:58N 51°20' E 003°12'0 0.0
2017-Sep-21 14:28N 51°20' E 003°12'0 0.0
2017-Sep-21 13:58N 51°20' E 003°12'0 0.0
2017-Sep-21 13:28N 51°20' E 003°12'0 0.0
2017-Sep-21 12:58N 51°20' E 003°12'0 0.0
2017-Sep-21 12:28N 51°20' E 003°12'0 0.0
2017-Sep-21 11:58N 51°20' E 003°12'0 0.0
2017-Sep-21 11:28N 51°20' E 003°12'0 0.0
2017-Sep-21 10:58N 51°20' E 003°12'0 0.0
2017-Sep-21 10:28N 51°20' E 003°12'0 0.0
2017-Sep-21 09:58N 51°20' E 003°12'0 0.0
2017-Sep-21 09:28N 51°20' E 003°12'0 0.0
2017-Sep-21 08:58N 51°20' E 003°12'0 0.0
2017-Sep-21 08:28N 51°20' E 003°12'0 0.0
2017-Sep-21 07:58N 51°20' E 003°12'0 0.0
2017-Sep-21 07:28N 51°20' E 003°12'0 0.5
2017-Sep-21 07:00N 51°21' E 003°12'4 7.5
2017-Sep-21 06:30N 51°24' E 003°08'917.4
2017-Sep-21 06:00N 51°25' E 002°55'815.7
2017-Sep-21 05:30N 51°23' E 002°43'713.5
2017-Sep-21 05:00N 51°22' E 002°32'918.2
2017-Sep-21 04:30N 51°19' E 002°18'1122.1
2017-Sep-21 04:01N 51°13' E 002°04'1223.0
2017-Sep-21 03:31N 51°08' E 001°47'1223.9
2017-Sep-21 03:01N 51°00' E 001°33'1224.2
2017-Sep-21 02:30N 50°49' E 001°23'1223.0
2017-Sep-21 01:58N 50°38' E 001°15'2021.8
2017-Sep-21 01:04N 50°29' E 000°48'122.1
2017-Sep-21 01:00N 50°28' E 000°46'1222.3
2017-Sep-21 00:28N 50°25' E 000°28'1022.4
2017-Sep-21 00:00N 50°22' E 000°12'1122.7
2017-Sep-20 23:30N 50°19' W 000°05'1223.2
2017-Sep-20 23:00N 50°16' W 000°22'1421.4
2017-Sep-20 22:20N 50°25' W 000°39'722.2
2017-Sep-20 22:00N 50°31' W 000°47'1020.4
2017-Sep-20 21:31N 50°40' W 000°55'612.5
2017-Sep-20 21:01N 50°44' W 001°03'1019.6
2017-Sep-20 20:31N 50°47' W 001°17'4 8.1
2017-Sep-20 20:00N 50°51' W 001°20'5 9.1
2017-Sep-20 19:30N 50°54' W 001°25'0 0.5
2017-Sep-20 18:59N 50°54' W 001°25'0 0.0
2017-Sep-20 18:29N 50°54' W 001°25'0 0.0
2017-Sep-20 17:59N 50°54' W 001°25'0 0.0
2017-Sep-20 17:29N 50°54' W 001°25'0 0.0
2017-Sep-20 16:59N 50°54' W 001°25'0 0.0
2017-Sep-20 16:29N 50°54' W 001°25'0 0.0
2017-Sep-20 15:59N 50°54' W 001°25'0 0.0
2017-Sep-20 15:29N 50°54' W 001°25'0 0.0
2017-Sep-20 14:56N 50°54' W 001°25'0 0.0
2017-Sep-20 13:59N 50°54' W 001°25'0 0.0
2017-Sep-20 13:29N 50°54' W 001°25'0 0.0
2017-Sep-20 12:59N 50°54' W 001°25'0 0.0
2017-Sep-20 12:29N 50°54' W 001°25'0 0.0
2017-Sep-20 11:59N 50°54' W 001°25'0 0.0
2017-Sep-20 11:29N 50°54' W 001°25'0 0.0
2017-Sep-20 10:59N 50°54' W 001°25'0 0.0
2017-Sep-20 10:26N 50°54' W 001°25'0 0.0
2017-Sep-20 09:59N 50°54' W 001°25'0 0.0
2017-Sep-20 09:29N 50°54' W 001°25'0 0.0
2017-Sep-20 08:59N 50°54' W 001°25'0 0.0
2017-Sep-20 08:29N 50°54' W 001°25'0 0.0
2017-Sep-20 07:59N 50°54' W 001°25'0 0.0
2017-Sep-20 07:29N 50°54' W 001°25'0 0.0
2017-Sep-20 06:59N 50°54' W 001°25'0 0.0
2017-Sep-20 06:26N 50°54' W 001°25'0 0.2
2017-Sep-20 06:00N 50°54' W 001°25'1 2.6
2017-Sep-20 05:30N 50°53' W 001°24'4 8.9
2017-Sep-20 05:00N 50°50' W 001°19'4 8.1
2017-Sep-20 04:30N 50°46' W 001°15'714.2
2017-Sep-20 04:01N 50°44' W 001°05'612.3
2017-Sep-20 03:30N 50°40' W 000°58'510.2
2017-Sep-20 03:00N 50°35' W 000°58'510.3
2017-Sep-20 02:30N 50°30' W 000°56'510.8
2017-Sep-20 02:00N 50°25' W 000°54'1512.0
2017-Sep-20 00:46N 50°11' W 000°44'511.0
2017-Sep-20 00:17N 50°06' W 000°41'511.2
2017-Sep-19 23:49N 50°02' W 000°37'511.1
2017-Sep-19 23:21N 49°57' W 000°34'2012.1
2017-Sep-19 21:41N 49°38' W 000°22'314.4
2017-Sep-19 21:30N 49°36' W 000°21'1014.1
2017-Sep-19 20:50N 49°32' W 000°07'411.7
2017-Sep-19 20:30N 49°31' W 000°02'611.3
2017-Sep-19 20:00N 49°29' E 000°06'0 0.1
2017-Sep-19 19:29N 49°29' E 000°06'0 0.0
2017-Sep-19 18:59N 49°29' E 000°06'0 0.0
2017-Sep-19 18:29N 49°29' E 000°06'0 0.0
2017-Sep-19 17:58N 49°29' E 000°06'0 0.0
2017-Sep-19 17:28N 49°29' E 000°06'0 0.0
2017-Sep-19 16:58N 49°29' E 000°06'0 0.0
2017-Sep-19 16:28N 49°29' E 000°06'0 0.0
2017-Sep-19 15:58N 49°29' E 000°06'0 0.0
2017-Sep-19 15:29N 49°29' E 000°06'0 0.0
2017-Sep-19 14:58N 49°29' E 000°06'0 0.0
2017-Sep-19 14:30N 49°29' E 000°06'0 0.0
2017-Sep-19 13:59N 49°29' E 000°06'0 0.0
2017-Sep-19 13:28N 49°29' E 000°06'0 0.0
2017-Sep-19 12:58N 49°29' E 000°06'0 0.0
2017-Sep-19 12:29N 49°29' E 000°06'0 0.0
2017-Sep-19 11:58N 49°29' E 000°06'0 0.0
2017-Sep-19 11:30N 49°29' E 000°06'0 0.0
2017-Sep-19 10:59N 49°29' E 000°06'0 0.0
2017-Sep-19 10:29N 49°29' E 000°06'0 0.0
2017-Sep-19 09:58N 49°29' E 000°06'0 0.0
2017-Sep-19 09:28N 49°29' E 000°06'0 0.0
2017-Sep-19 08:58N 49°29' E 000°06'0 0.0
2017-Sep-19 08:29N 49°29' E 000°06'0 0.0
2017-Sep-19 07:59N 49°29' E 000°06'0 0.0
2017-Sep-19 07:28N 49°29' E 000°06'0 0.0
2017-Sep-19 07:00N 49°29' E 000°06'0 0.0
2017-Sep-19 06:30N 49°29' E 000°06'0 0.0
2017-Sep-19 05:59N 49°29' E 000°06'0 0.0
2017-Sep-19 05:29N 49°29' E 000°06'1 1.3
2017-Sep-19 05:00N 49°29' E 000°07'4 8.2
2017-Sep-19 04:30N 49°30' E 000°01'713.1
2017-Sep-19 04:01N 49°32' W 000°08'4 7.2
2017-Sep-19 03:31N 49°35' W 000°12'713.8
2017-Sep-19 03:00N 49°42' W 000°11'714.8
2017-Sep-19 02:30N 49°49' W 000°10'714.8
2017-Sep-19 02:00N 49°56' W 000°09'2514.0
2017-Sep-19 00:15N 50°21' W 000°09'416.8
2017-Sep-19 00:00N 50°24' W 000°06'817.0
2017-Sep-18 23:30N 50°29' E 000°05'917.6
2017-Sep-18 23:00N 50°32' E 000°18'816.8
2017-Sep-18 22:30N 50°34' E 000°31'816.3
2017-Sep-18 22:00N 50°39' E 000°42'815.9
2017-Sep-18 21:30N 50°44' E 000°51'713.5
2017-Sep-18 21:00N 50°49' E 000°59'713.6
2017-Sep-18 20:30N 50°53' E 001°07'714.1
2017-Sep-18 20:00N 50°58' E 001°15'715.0
2017-Sep-18 19:31N 51°03' E 001°24'918.2
2017-Sep-18 19:01N 51°09' E 001°35'1019.3
2017-Sep-18 18:31N 51°15' E 001°46'1019.3
2017-Sep-18 18:01N 51°24' E 001°54'918.4
2017-Sep-18 17:31N 51°31' E 002°02'918.0
2017-Sep-18 17:01N 51°38' E 002°12'917.7
2017-Sep-18 16:30N 51°44' E 002°22'12516.2
2017-Sep-18 08:49N 53°21' E 004°31'618.2
2017-Sep-18 08:28N 53°27' E 004°35'817.5
2017-Sep-18 08:01N 53°31' E 004°47'917.6
2017-Sep-18 07:30N 53°34' E 005°01'714.3
2017-Sep-18 07:01N 53°37' E 005°12'916.5
2017-Sep-18 06:29N 53°40' E 005°26'7216.8
2017-Sep-18 02:11N 53°59' E 007°24'617.7
2017-Sep-18 01:51N 54°00' E 007°33'515.3
2017-Sep-18 01:30N 54°02' E 007°42'714.9
2017-Sep-18 01:00N 54°02' E 007°54'612.8
2017-Sep-18 00:30N 54°01' E 008°05'5 9.2
2017-Sep-18 00:00N 54°00' E 008°13'816.3
2017-Sep-17 23:30N 53°59' E 008°27'816.3
2017-Sep-17 23:00N 53°56' E 008°40'713.8
2017-Sep-17 22:31N 53°51' E 008°47'714.4
2017-Sep-17 22:00N 53°51' E 008°59'713.3
2017-Sep-17 21:31N 53°53' E 009°10'611.5
2017-Sep-17 21:00N 53°51' E 009°19'713.2
2017-Sep-17 20:30N 53°45' E 009°24'612.7
2017-Sep-17 20:00N 53°40' E 009°31'612.1
2017-Sep-17 19:30N 53°35' E 009°37'612.6
2017-Sep-17 19:00N 53°33' E 009°47'5 9.9
2017-Sep-17 18:30N 53°33' E 009°55'2 3.1
2017-Sep-17 18:00N 53°32' E 009°58'0 0.0
2017-Sep-17 17:30N 53°32' E 009°58'0 0.0
2017-Sep-17 17:00N 53°32' E 009°58'0 0.0
2017-Sep-17 16:30N 53°32' E 009°58'0 0.0
2017-Sep-17 16:00N 53°32' E 009°58'0 0.0
2017-Sep-17 15:30N 53°32' E 009°58'0 0.0
2017-Sep-17 15:00N 53°32' E 009°58'0 0.0
2017-Sep-17 14:30N 53°32' E 009°58'0 0.0
2017-Sep-17 14:00N 53°32' E 009°58'0 0.0
2017-Sep-17 13:30N 53°32' E 009°58'0 0.0
2017-Sep-17 13:00N 53°32' E 009°58'0 0.0
2017-Sep-17 12:30N 53°32' E 009°58'0 0.0
2017-Sep-17 12:00N 53°32' E 009°58'0 0.0
2017-Sep-17 11:30N 53°32' E 009°58'0 0.0
2017-Sep-17 11:00N 53°32' E 009°58'0 0.0
2017-Sep-17 10:30N 53°32' E 009°58'0 0.0
2017-Sep-17 10:00N 53°32' E 009°58'0 0.0
2017-Sep-17 09:30N 53°32' E 009°58'0 0.0
2017-Sep-17 09:00N 53°32' E 009°58'0 0.0
2017-Sep-17 08:30N 53°32' E 009°58'0 0.0
2017-Sep-17 08:00N 53°32' E 009°58'0 0.0
2017-Sep-17 07:30N 53°32' E 009°58'0 0.0
2017-Sep-17 07:00N 53°32' E 009°58'0 0.0
2017-Sep-17 06:30N 53°32' E 009°58'0 0.0
2017-Sep-17 06:00N 53°32' E 009°58'0 0.0
2017-Sep-17 05:30N 53°32' E 009°58'0 0.0
2017-Sep-17 05:00N 53°32' E 009°58'0 0.0
2017-Sep-17 04:30N 53°32' E 009°58'0 0.0
2017-Sep-17 04:00N 53°32' E 009°58'1 1.6
2017-Sep-17 03:30N 53°33' E 009°57'2 4.9
2017-Sep-17 03:00N 53°33' E 009°53'4 8.2
2017-Sep-17 02:31N 53°34' E 009°46'5 9.8
2017-Sep-17 02:01N 53°35' E 009°38'611.7
2017-Sep-17 01:30N 53°39' E 009°31'510.5
2017-Sep-17 01:01N 53°43' E 009°28'611.7
2017-Sep-17 00:30N 53°48' E 009°22'713.5
2017-Sep-17 00:00N 53°53' E 009°13'5 9.8
2017-Sep-16 23:31N 53°52' E 009°05'611.9
2017-Sep-16 23:00N 53°51' E 008°56'611.8
2017-Sep-16 22:30N 53°51' E 008°46'611.9
2017-Sep-16 22:00N 53°56' E 008°40'817.0
2017-Sep-16 21:30N 53°59' E 008°26'917.6
2017-Sep-16 21:00N 53°60' E 008°11'713.6
2017-Sep-16 20:31N 53°58' E 007°60'814.9
2017-Sep-16 20:00N 53°57' E 007°47'816.2
2017-Sep-16 19:30N 53°55' E 007°34'816.2
2017-Sep-16 18:59N 53°53' E 007°20'2316.5
2017-Sep-16 17:37N 53°48' E 006°43'517.0
2017-Sep-16 17:17N 53°47' E 006°34'717.3
2017-Sep-16 16:52N 53°45' E 006°22'3117.6
2017-Sep-16 15:08N 53°36' E 005°33'218.3
2017-Sep-16 15:00N 53°35' E 005°29'919.1
2017-Sep-16 14:31N 53°32' E 005°14'1020.5
2017-Sep-16 14:01N 53°29' E 004°57'1020.9
2017-Sep-16 13:31N 53°24' E 004°42'1122.0
2017-Sep-16 13:00N 53°14' E 004°34'1122.2
2017-Sep-16 12:30N 53°04' E 004°24'1121.6
2017-Sep-16 12:00N 52°54' E 004°16'1121.3
2017-Sep-16 11:30N 52°45' E 004°08'918.0
2017-Sep-16 11:01N 52°37' E 004°15'1019.5
2017-Sep-16 10:30N 52°31' E 004°27'611.4
2017-Sep-16 10:00N 52°28' E 004°36'1 1.1
2017-Sep-16 09:30N 52°28' E 004°36'1 2.8
2017-Sep-16 09:00N 52°28' E 004°39'3 6.8
2017-Sep-16 08:31N 52°26' E 004°43'4 7.3
2017-Sep-16 08:00N 52°25' E 004°49'3 6.2
2017-Sep-16 07:31N 52°24' E 004°54'1 2.3
2017-Sep-16 07:01N 52°23' E 004°55'0 0.0
2017-Sep-16 06:31N 52°23' E 004°55'0 0.0
2017-Sep-16 06:01N 52°23' E 004°55'0 0.0
2017-Sep-16 05:30N 52°23' E 004°55'0 0.0
2017-Sep-16 05:00N 52°23' E 004°55'0 0.0
2017-Sep-16 04:31N 52°23' E 004°55'0 0.0
2017-Sep-16 04:01N 52°23' E 004°55'0 0.0
2017-Sep-16 03:31N 52°23' E 004°55'0 0.0
2017-Sep-16 03:01N 52°23' E 004°55'0 0.0
2017-Sep-16 02:31N 52°23' E 004°55'0 0.0
2017-Sep-16 02:00N 52°23' E 004°55'0 0.0
2017-Sep-16 01:31N 52°23' E 004°55'0 0.0
2017-Sep-16 01:01N 52°23' E 004°55'0 0.0
2017-Sep-16 00:31N 52°23' E 004°55'0 0.0
2017-Sep-16 00:01N 52°23' E 004°55'0 0.0
2017-Sep-15 23:31N 52°23' E 004°55'0 0.0
2017-Sep-15 23:01N 52°23' E 004°55'0 0.0
2017-Sep-15 22:31N 52°23' E 004°55'0 0.0
2017-Sep-15 22:01N 52°23' E 004°55'0 0.0
2017-Sep-15 21:31N 52°23' E 004°55'0 0.0
2017-Sep-15 21:01N 52°23' E 004°55'0 0.0
2017-Sep-15 20:31N 52°23' E 004°55'0 0.0
2017-Sep-15 20:01N 52°23' E 004°55'0 0.0
2017-Sep-15 19:31N 52°23' E 004°55'0 0.0
2017-Sep-15 19:01N 52°23' E 004°55'0 0.0
2017-Sep-15 18:30N 52°23' E 004°55'0 0.0
2017-Sep-15 18:00N 52°23' E 004°55'0 0.0
2017-Sep-15 17:31N 52°23' E 004°55'0 0.0
2017-Sep-15 17:00N 52°23' E 004°55'0 0.0
2017-Sep-15 16:30N 52°23' E 004°55'0 0.0
2017-Sep-15 16:00N 52°23' E 004°55'0 0.0
2017-Sep-15 15:31N 52°23' E 004°55'0 0.0
2017-Sep-15 15:01N 52°23' E 004°55'0 0.0
2017-Sep-15 14:31N 52°23' E 004°55'0 0.0
2017-Sep-15 14:01N 52°23' E 004°55'0 0.0
2017-Sep-15 13:31N 52°23' E 004°55'0 0.0
2017-Sep-15 13:01N 52°23' E 004°55'0 0.0
2017-Sep-15 12:31N 52°23' E 004°55'0 0.0
2017-Sep-15 12:01N 52°23' E 004°55'0 0.0
2017-Sep-15 11:31N 52°23' E 004°55'0 0.0
2017-Sep-15 11:01N 52°23' E 004°55'0 0.0
2017-Sep-15 10:30N 52°23' E 004°55'0 0.0
2017-Sep-15 10:01N 52°23' E 004°55'0 0.0
2017-Sep-15 09:30N 52°23' E 004°55'0 0.0
2017-Sep-15 09:01N 52°23' E 004°55'0 0.0
2017-Sep-15 08:30N 52°23' E 004°55'0 1.0
2017-Sep-15 08:01N 52°23' E 004°56'2 4.0
2017-Sep-15 07:30N 52°24' E 004°53'3 6.4
2017-Sep-15 07:00N 52°25' E 004°48'4 7.1
2017-Sep-15 06:31N 52°26' E 004°42'4 7.4
2017-Sep-15 06:01N 52°28' E 004°37'0 0.9
2017-Sep-15 05:31N 52°28' E 004°36'3 5.3
2017-Sep-15 05:00N 52°28' E 004°32'713.0
2017-Sep-15 04:30N 52°28' E 004°21'510.6
2017-Sep-15 04:00N 52°29' E 004°13'611.5
2017-Sep-15 03:31N 52°28' E 004°03'611.2
2017-Sep-15 03:01N 52°26' E 003°55'510.7
2017-Sep-15 02:31N 52°26' E 003°46'612.8
2017-Sep-15 02:01N 52°24' E 003°36'5413.6
2017-Sep-14 22:01N 51°42' E 002°41'014.1
2017-Sep-14 22:00N 51°42' E 002°41'714.2
2017-Sep-14 21:31N 51°35' E 002°43'816.4
2017-Sep-14 21:01N 51°27' E 002°43'4 8.0
2017-Sep-14 20:30N 51°26' E 002°49'815.8
2017-Sep-14 20:00N 51°25' E 003°02'714.4
2017-Sep-14 19:31N 51°21' E 003°12'1 1.6
2017-Sep-14 18:59N 51°20' E 003°12'0 0.0
2017-Sep-14 18:29N 51°20' E 003°12'0 0.0
2017-Sep-14 17:59N 51°20' E 003°12'0 0.0
2017-Sep-14 17:29N 51°20' E 003°12'0 0.0
2017-Sep-14 16:59N 51°20' E 003°12'0 0.0
2017-Sep-14 16:29N 51°20' E 003°12'0 0.0
2017-Sep-14 15:59N 51°20' E 003°12'0 0.0
2017-Sep-14 15:29N 51°20' E 003°12'0 0.0
2017-Sep-14 14:59N 51°20' E 003°12'0 0.0
2017-Sep-14 14:29N 51°20' E 003°12'0 0.0
2017-Sep-14 13:59N 51°20' E 003°12'0 0.0
2017-Sep-14 13:29N 51°20' E 003°12'0 0.0
2017-Sep-14 12:59N 51°20' E 003°12'0 0.0
2017-Sep-14 12:28N 51°20' E 003°12'0 0.0
2017-Sep-14 11:58N 51°20' E 003°12'0 0.0
2017-Sep-14 11:28N 51°20' E 003°12'0 0.0
2017-Sep-14 10:59N 51°20' E 003°12'0 0.0
2017-Sep-14 10:28N 51°20' E 003°12'0 0.0
2017-Sep-14 09:58N 51°20' E 003°12'0 0.0
2017-Sep-14 09:31N 51°20' E 003°12'0 0.8
2017-Sep-14 09:01N 51°21' E 003°12'612.8
2017-Sep-14 08:30N 51°24' E 003°04'918.4
2017-Sep-14 08:00N 51°25' E 002°49'4 7.8
2017-Sep-14 07:31N 51°24' E 002°43'1 2.6
2017-Sep-14 07:00N 51°23' E 002°42'2 3.4
2017-Sep-14 06:31N 51°22' E 002°41'5 9.9
2017-Sep-14 06:01N 51°22' E 002°33'1223.0
2017-Sep-14 05:31N 51°18' E 002°16'1223.7
2017-Sep-14 05:01N 51°12' E 001°60'1223.6
2017-Sep-14 04:30N 51°06' E 001°44'1224.0
2017-Sep-14 04:01N 50°57' E 001°31'1123.0
2017-Sep-14 03:31N 50°47' E 001°23'1322.8
2017-Sep-14 02:57N 50°36' E 001°10'1023.3
2017-Sep-14 02:30N 50°31' E 000°57'1223.7
2017-Sep-14 01:59N 50°26' E 000°39'1123.9
2017-Sep-14 01:31N 50°22' E 000°22'1224.0
2017-Sep-14 01:01N 50°19' E 000°04'1224.0
2017-Sep-14 00:30N 50°17' W 000°15'1121.3
2017-Sep-14 00:00N 50°19' W 000°31'1223.0
2017-Sep-13 23:29N 50°28' W 000°43'1122.5
2017-Sep-13 23:01N 50°37' W 000°53'815.9
2017-Sep-13 22:31N 50°43' W 001°01'918.3
2017-Sep-13 22:01N 50°46' W 001°14'5 9.3
2017-Sep-13 21:30N 50°50' W 001°19'510.3
2017-Sep-13 21:00N 50°53' W 001°25'0 1.0
2017-Sep-13 20:30N 50°54' W 001°25'0 0.0
2017-Sep-13 20:00N 50°54' W 001°25'0 0.0
2017-Sep-13 19:30N 50°54' W 001°25'0 0.0
2017-Sep-13 19:00N 50°54' W 001°25'0 0.0
2017-Sep-13 18:30N 50°54' W 001°25'0 0.0
2017-Sep-13 18:00N 50°54' W 001°25'0 0.0
2017-Sep-13 17:30N 50°54' W 001°25'0 0.0
2017-Sep-13 17:00N 50°54' W 001°25'0 0.0
2017-Sep-13 16:30N 50°54' W 001°25'0 0.0
2017-Sep-13 15:57N 50°54' W 001°25'0 0.0
2017-Sep-13 15:30N 50°54' W 001°25'0 0.0
2017-Sep-13 15:00N 50°54' W 001°25'0 0.0
2017-Sep-13 14:30N 50°54' W 001°25'0 0.0
2017-Sep-13 14:00N 50°54' W 001°25'0 0.0
2017-Sep-13 13:30N 50°54' W 001°25'0 0.0
2017-Sep-13 13:00N 50°54' W 001°25'0 0.0
2017-Sep-13 12:30N 50°54' W 001°25'0 0.0
2017-Sep-13 12:00N 50°54' W 001°25'0 0.0
2017-Sep-13 11:30N 50°54' W 001°25'0 0.0
2017-Sep-13 11:00N 50°54' W 001°25'0 0.0
2017-Sep-13 10:30N 50°54' W 001°25'0 0.0
2017-Sep-13 10:00N 50°54' W 001°25'0 0.2
2017-Sep-13 09:30N 50°54' W 001°25'2 3.4
2017-Sep-13 09:00N 50°53' W 001°23'5 9.8
2017-Sep-13 08:30N 50°49' W 001°18'4 8.5
2017-Sep-13 08:01N 50°46' W 001°13'816.8
2017-Sep-13 07:30N 50°43' W 001°01'612.9
2017-Sep-13 07:00N 50°37' W 000°58'715.0
2017-Sep-13 06:31N 50°32' W 000°50'816.1
2017-Sep-13 06:01N 50°27' W 000°39'917.4
2017-Sep-13 05:31N 50°28' W 000°26'1019.2
2017-Sep-13 05:01N 50°30' W 000°11'1020.3
2017-Sep-13 04:31N 50°32' E 000°05'1019.4
2017-Sep-13 04:01N 50°35' E 000°19'918.3
2017-Sep-13 03:31N 50°38' E 000°33'918.0
2017-Sep-13 03:01N 50°43' E 000°45'917.9
2017-Sep-13 02:31N 50°48' E 000°56'917.9
2017-Sep-13 02:01N 50°53' E 001°07'917.9
2017-Sep-13 01:30N 50°60' E 001°18'919.1
2017-Sep-13 01:01N 51°05' E 001°30'1020.8
2017-Sep-13 00:31N 51°12' E 001°42'1020.9
2017-Sep-13 00:01N 51°21' E 001°51'1021.0
2017-Sep-12 23:31N 51°30' E 002°00'1121.1
2017-Sep-12 23:01N 51°37' E 002°13'60116.9
2017-Sep-12 22:30N 52°04' E 003°39'0 0.0
2017-Sep-12 22:00N 52°04' E 003°39'0 0.0
2017-Sep-12 21:30N 52°04' E 003°39'0 0.0
2017-Sep-12 21:00N 52°04' E 003°39'0 0.0
2017-Sep-12 20:29N 52°04' E 003°39'0 0.0
2017-Sep-12 20:00N 52°04' E 003°39'612.5
2017-Sep-12 19:30N 52°04' E 003°49'612.8
2017-Sep-12 19:00N 52°01' E 003°58'714.4
2017-Sep-12 18:30N 51°58' E 004°09'611.5
2017-Sep-12 18:00N 51°54' E 004°16'5 9.0
2017-Sep-12 17:30N 51°54' E 004°23'3 6.9
2017-Sep-12 17:00N 51°54' E 004°29'0 0.0
2017-Sep-12 16:30N 51°54' E 004°29'0 0.0
2017-Sep-12 16:00N 51°54' E 004°29'0 0.0
2017-Sep-12 15:30N 51°54' E 004°29'0 0.0
2017-Sep-12 15:00N 51°54' E 004°29'0 0.0
2017-Sep-12 14:30N 51°54' E 004°29'0 0.0
2017-Sep-12 14:00N 51°54' E 004°29'0 0.0
2017-Sep-12 13:30N 51°54' E 004°29'0 0.0
2017-Sep-12 13:00N 51°54' E 004°29'0 0.0
2017-Sep-12 12:30N 51°54' E 004°29'0 0.0
2017-Sep-12 12:00N 51°54' E 004°29'0 0.0
2017-Sep-12 11:30N 51°54' E 004°29'0 0.0
2017-Sep-12 11:00N 51°54' E 004°29'0 0.0
2017-Sep-12 10:30N 51°54' E 004°29'0 0.0
2017-Sep-12 10:00N 51°54' E 004°29'0 0.0
2017-Sep-12 09:30N 51°54' E 004°29'0 0.0
2017-Sep-12 09:00N 51°54' E 004°29'0 0.0
2017-Sep-12 08:30N 51°54' E 004°29'0 0.0
2017-Sep-12 08:00N 51°54' E 004°29'0 0.0
2017-Sep-12 07:30N 51°54' E 004°29'0 0.0
2017-Sep-12 07:00N 51°54' E 004°29'0 0.0
2017-Sep-12 06:30N 51°54' E 004°29'0 0.0
2017-Sep-12 06:00N 51°54' E 004°29'0 0.0
2017-Sep-12 05:30N 51°54' E 004°29'2 3.6
2017-Sep-12 05:00N 51°54' E 004°26'4 8.2
2017-Sep-12 04:30N 51°54' E 004°19'612.4
2017-Sep-12 04:00N 51°57' E 004°11'714.1
2017-Sep-12 03:31N 51°60' E 004°01'713.0
2017-Sep-12 03:00N 52°01' E 003°50'4 8.8
2017-Sep-12 02:30N 52°05' E 003°46'  
Track history (hours):
 
Tides and Currents Weather Stations Pressure Air Temp Water Temp Dewpoint Dewpoint Depression Visibility Wind Speed Wind Dir Waves Ship Positions

MSC Preziosa

Last reported at 2017-Sep-22 02:00 UTC. Time now 2017-Sep-23 09:32 UTC.
Position N 52°26' E 003°46'.

Length 333 m; draft 8.6 m.

Type: Ship. MMSI: 371861000.

Date/timePositionNaut miles runAvg speedWind from/ knotsBaromVisibWave heightAir tempDewpointWater temp
2017-Sep-22 02:00N 52°26' E 003°46'712.8
2017-Sep-22 01:30N 52°24' E 003°35'611.7
2017-Sep-22 01:00N 52°21' E 003°27'713.6
2017-Sep-22 00:30N 52°16' E 003°20'713.1
2017-Sep-21 23:56N 52°11' E 003°11'2816.3
2017-Sep-21 22:13N 51°52' E 002°37'616.7
2017-Sep-21 21:53N 51°46' E 002°38'616.5
2017-Sep-21 21:30N 51°41' E 002°42'815.5
2017-Sep-21 21:00N 51°33' E 002°42'815.9
2017-Sep-21 20:31N 51°25' E 002°43'612.6
2017-Sep-21 20:00N 51°25' E 002°53'918.2
2017-Sep-21 19:31N 51°24' E 003°08'4 8.0
2017-Sep-21 18:58N 51°20' E 003°12'0 0.0
2017-Sep-21 18:28N 51°20' E 003°12'0 0.0
2017-Sep-21 17:58N 51°20' E 003°12'0 0.0
2017-Sep-21 17:28N 51°20' E 003°12'0 0.0
2017-Sep-21 16:58N 51°20' E 003°12'0 0.0
2017-Sep-21 16:28N 51°20' E 003°12'0 0.0
2017-Sep-21 15:58N 51°20' E 003°12'0 0.0
2017-Sep-21 15:28N 51°20' E 003°12'0 0.0
2017-Sep-21 14:58N 51°20' E 003°12'0 0.0
2017-Sep-21 14:28N 51°20' E 003°12'0 0.0
2017-Sep-21 13:58N 51°20' E 003°12'0 0.0
2017-Sep-21 13:28N 51°20' E 003°12'0 0.0
2017-Sep-21 12:58N 51°20' E 003°12'0 0.0
2017-Sep-21 12:28N 51°20' E 003°12'0 0.0
2017-Sep-21 11:58N 51°20' E 003°12'0 0.0
2017-Sep-21 11:28N 51°20' E 003°12'0 0.0
2017-Sep-21 10:58N 51°20' E 003°12'0 0.0
2017-Sep-21 10:28N 51°20' E 003°12'0 0.0
2017-Sep-21 09:58N 51°20' E 003°12'0 0.0
2017-Sep-21 09:28N 51°20' E 003°12'0 0.0
2017-Sep-21 08:58N 51°20' E 003°12'0 0.0
2017-Sep-21 08:28N 51°20' E 003°12'0 0.0
2017-Sep-21 07:58N 51°20' E 003°12'0 0.0
2017-Sep-21 07:28N 51°20' E 003°12'0 0.5
2017-Sep-21 07:00N 51°21' E 003°12'4 7.5
2017-Sep-21 06:30N 51°24' E 003°08'917.4
2017-Sep-21 06:00N 51°25' E 002°55'815.7
2017-Sep-21 05:30N 51°23' E 002°43'713.5
2017-Sep-21 05:00N 51°22' E 002°32'918.2
2017-Sep-21 04:30N 51°19' E 002°18'1122.1
2017-Sep-21 04:01N 51°13' E 002°04'1223.0
2017-Sep-21 03:31N 51°08' E 001°47'1223.9
2017-Sep-21 03:01N 51°00' E 001°33'1224.2
2017-Sep-21 02:30N 50°49' E 001°23'1223.0
2017-Sep-21 01:58N 50°38' E 001°15'2021.8
2017-Sep-21 01:04N 50°29' E 000°48'122.1
2017-Sep-21 01:00N 50°28' E 000°46'1222.3
2017-Sep-21 00:28N 50°25' E 000°28'1022.4
2017-Sep-21 00:00N 50°22' E 000°12'1122.7
2017-Sep-20 23:30N 50°19' W 000°05'1223.2
2017-Sep-20 23:00N 50°16' W 000°22'1421.4
2017-Sep-20 22:20N 50°25' W 000°39'722.2
2017-Sep-20 22:00N 50°31' W 000°47'1020.4
2017-Sep-20 21:31N 50°40' W 000°55'612.5
2017-Sep-20 21:01N 50°44' W 001°03'1019.6
2017-Sep-20 20:31N 50°47' W 001°17'4 8.1
2017-Sep-20 20:00N 50°51' W 001°20'5 9.1
2017-Sep-20 19:30N 50°54' W 001°25'0 0.5
2017-Sep-20 18:59N 50°54' W 001°25'0 0.0
2017-Sep-20 18:29N 50°54' W 001°25'0 0.0
2017-Sep-20 17:59N 50°54' W 001°25'0 0.0
2017-Sep-20 17:29N 50°54' W 001°25'0 0.0
2017-Sep-20 16:59N 50°54' W 001°25'0 0.0
2017-Sep-20 16:29N 50°54' W 001°25'0 0.0
2017-Sep-20 15:59N 50°54' W 001°25'0 0.0
2017-Sep-20 15:29N 50°54' W 001°25'0 0.0
2017-Sep-20 14:56N 50°54' W 001°25'0 0.0
2017-Sep-20 13:59N 50°54' W 001°25'0 0.0
2017-Sep-20 13:29N 50°54' W 001°25'0 0.0
2017-Sep-20 12:59N 50°54' W 001°25'0 0.0
2017-Sep-20 12:29N 50°54' W 001°25'0 0.0
2017-Sep-20 11:59N 50°54' W 001°25'0 0.0
2017-Sep-20 11:29N 50°54' W 001°25'0 0.0
2017-Sep-20 10:59N 50°54' W 001°25'0 0.0
2017-Sep-20 10:26N 50°54' W 001°25'0 0.0
2017-Sep-20 09:59N 50°54' W 001°25'0 0.0
2017-Sep-20 09:29N 50°54' W 001°25'0 0.0
2017-Sep-20 08:59N 50°54' W 001°25'0 0.0
2017-Sep-20 08:29N 50°54' W 001°25'0 0.0
2017-Sep-20 07:59N 50°54' W 001°25'0 0.0
2017-Sep-20 07:29N 50°54' W 001°25'0 0.0
2017-Sep-20 06:59N 50°54' W 001°25'0 0.0
2017-Sep-20 06:26N 50°54' W 001°25'0 0.2
2017-Sep-20 06:00N 50°54' W 001°25'1 2.6
2017-Sep-20 05:30N 50°53' W 001°24'4 8.9
2017-Sep-20 05:00N 50°50' W 001°19'4 8.1
2017-Sep-20 04:30N 50°46' W 001°15'714.2
2017-Sep-20 04:01N 50°44' W 001°05'612.3
2017-Sep-20 03:30N 50°40' W 000°58'510.2
2017-Sep-20 03:00N 50°35' W 000°58'510.3
2017-Sep-20 02:30N 50°30' W 000°56'510.8
2017-Sep-20 02:00N 50°25' W 000°54'1512.0
2017-Sep-20 00:46N 50°11' W 000°44'511.0
2017-Sep-20 00:17N 50°06' W 000°41'511.2
2017-Sep-19 23:49N 50°02' W 000°37'511.1
2017-Sep-19 23:21N 49°57' W 000°34'2012.1
2017-Sep-19 21:41N 49°38' W 000°22'314.4
2017-Sep-19 21:30N 49°36' W 000°21'1014.1
2017-Sep-19 20:50N 49°32' W 000°07'411.7
2017-Sep-19 20:30N 49°31' W 000°02'611.3
2017-Sep-19 20:00N 49°29' E 000°06'0 0.1
2017-Sep-19 19:29N 49°29' E 000°06'0 0.0
2017-Sep-19 18:59N 49°29' E 000°06'0 0.0
2017-Sep-19 18:29N 49°29' E 000°06'0 0.0
2017-Sep-19 17:58N 49°29' E 000°06'0 0.0
2017-Sep-19 17:28N 49°29' E 000°06'0 0.0
2017-Sep-19 16:58N 49°29' E 000°06'0 0.0
2017-Sep-19 16:28N 49°29' E 000°06'0 0.0
2017-Sep-19 15:58N 49°29' E 000°06'0 0.0
2017-Sep-19 15:29N 49°29' E 000°06'0 0.0
2017-Sep-19 14:58N 49°29' E 000°06'0 0.0
2017-Sep-19 14:30N 49°29' E 000°06'0 0.0
2017-Sep-19 13:59N 49°29' E 000°06'0 0.0
2017-Sep-19 13:28N 49°29' E 000°06'0 0.0
2017-Sep-19 12:58N 49°29' E 000°06'0 0.0
2017-Sep-19 12:29N 49°29' E 000°06'0 0.0
2017-Sep-19 11:58N 49°29' E 000°06'0 0.0
2017-Sep-19 11:30N 49°29' E 000°06'0 0.0
2017-Sep-19 10:59N 49°29' E 000°06'0 0.0
2017-Sep-19 10:29N 49°29' E 000°06'0 0.0
2017-Sep-19 09:58N 49°29' E 000°06'0 0.0
2017-Sep-19 09:28N 49°29' E 000°06'0 0.0
2017-Sep-19 08:58N 49°29' E 000°06'0 0.0
2017-Sep-19 08:29N 49°29' E 000°06'0 0.0
2017-Sep-19 07:59N 49°29' E 000°06'0 0.0
2017-Sep-19 07:28N 49°29' E 000°06'0 0.0
2017-Sep-19 07:00N 49°29' E 000°06'0 0.0
2017-Sep-19 06:30N 49°29' E 000°06'0 0.0
2017-Sep-19 05:59N 49°29' E 000°06'0 0.0
2017-Sep-19 05:29N 49°29' E 000°06'1 1.3
2017-Sep-19 05:00N 49°29' E 000°07'4 8.2
2017-Sep-19 04:30N 49°30' E 000°01'713.1
2017-Sep-19 04:01N 49°32' W 000°08'4 7.2
2017-Sep-19 03:31N 49°35' W 000°12'713.8
2017-Sep-19 03:00N 49°42' W 000°11'714.8
2017-Sep-19 02:30N 49°49' W 000°10'714.8
2017-Sep-19 02:00N 49°56' W 000°09'2514.0
2017-Sep-19 00:15N 50°21' W 000°09'416.8
2017-Sep-19 00:00N 50°24' W 000°06'817.0
2017-Sep-18 23:30N 50°29' E 000°05'917.6
2017-Sep-18 23:00N 50°32' E 000°18'816.8
2017-Sep-18 22:30N 50°34' E 000°31'816.3
2017-Sep-18 22:00N 50°39' E 000°42'815.9
2017-Sep-18 21:30N 50°44' E 000°51'713.5
2017-Sep-18 21:00N 50°49' E 000°59'713.6
2017-Sep-18 20:30N 50°53' E 001°07'714.1
2017-Sep-18 20:00N 50°58' E 001°15'715.0
2017-Sep-18 19:31N 51°03' E 001°24'918.2
2017-Sep-18 19:01N 51°09' E 001°35'1019.3
2017-Sep-18 18:31N 51°15' E 001°46'1019.3
2017-Sep-18 18:01N 51°24' E 001°54'918.4
2017-Sep-18 17:31N 51°31' E 002°02'918.0
2017-Sep-18 17:01N 51°38' E 002°12'917.7
2017-Sep-18 16:30N 51°44' E 002°22'12516.2
2017-Sep-18 08:49N 53°21' E 004°31'618.2
2017-Sep-18 08:28N 53°27' E 004°35'817.5
2017-Sep-18 08:01N 53°31' E 004°47'917.6
2017-Sep-18 07:30N 53°34' E 005°01'714.3
2017-Sep-18 07:01N 53°37' E 005°12'916.5
2017-Sep-18 06:29N 53°40' E 005°26'7216.8
2017-Sep-18 02:11N 53°59' E 007°24'617.7
2017-Sep-18 01:51N 54°00' E 007°33'515.3
2017-Sep-18 01:30N 54°02' E 007°42'714.9
2017-Sep-18 01:00N 54°02' E 007°54'612.8
2017-Sep-18 00:30N 54°01' E 008°05'5 9.2
2017-Sep-18 00:00N 54°00' E 008°13'816.3
2017-Sep-17 23:30N 53°59' E 008°27'816.3
2017-Sep-17 23:00N 53°56' E 008°40'713.8
2017-Sep-17 22:31N 53°51' E 008°47'714.4
2017-Sep-17 22:00N 53°51' E 008°59'713.3
2017-Sep-17 21:31N 53°53' E 009°10'611.5
2017-Sep-17 21:00N 53°51' E 009°19'713.2
2017-Sep-17 20:30N 53°45' E 009°24'612.7
2017-Sep-17 20:00N 53°40' E 009°31'612.1
2017-Sep-17 19:30N 53°35' E 009°37'612.6
2017-Sep-17 19:00N 53°33' E 009°47'5 9.9
2017-Sep-17 18:30N 53°33' E 009°55'2 3.1
2017-Sep-17 18:00N 53°32' E 009°58'0 0.0
2017-Sep-17 17:30N 53°32' E 009°58'0 0.0
2017-Sep-17 17:00N 53°32' E 009°58'0 0.0
2017-Sep-17 16:30N 53°32' E 009°58'0 0.0
2017-Sep-17 16:00N 53°32' E 009°58'0 0.0
2017-Sep-17 15:30N 53°32' E 009°58'0 0.0
2017-Sep-17 15:00N 53°32' E 009°58'0 0.0
2017-Sep-17 14:30N 53°32' E 009°58'0 0.0
2017-Sep-17 14:00N 53°32' E 009°58'0 0.0
2017-Sep-17 13:30N 53°32' E 009°58'0 0.0
2017-Sep-17 13:00N 53°32' E 009°58'0 0.0
2017-Sep-17 12:30N 53°32' E 009°58'0 0.0
2017-Sep-17 12:00N 53°32' E 009°58'0 0.0
2017-Sep-17 11:30N 53°32' E 009°58'0 0.0
2017-Sep-17 11:00N 53°32' E 009°58'0 0.0
2017-Sep-17 10:30N 53°32' E 009°58'0 0.0
2017-Sep-17 10:00N 53°32' E 009°58'0 0.0
2017-Sep-17 09:30N 53°32' E 009°58'0 0.0
2017-Sep-17 09:00N 53°32' E 009°58'0 0.0
2017-Sep-17 08:30N 53°32' E 009°58'0 0.0
2017-Sep-17 08:00N 53°32' E 009°58'0 0.0
2017-Sep-17 07:30N 53°32' E 009°58'0 0.0
2017-Sep-17 07:00N 53°32' E 009°58'0 0.0
2017-Sep-17 06:30N 53°32' E 009°58'0 0.0
2017-Sep-17 06:00N 53°32' E 009°58'0 0.0
2017-Sep-17 05:30N 53°32' E 009°58'0 0.0
2017-Sep-17 05:00N 53°32' E 009°58'0 0.0
2017-Sep-17 04:30N 53°32' E 009°58'0 0.0
2017-Sep-17 04:00N 53°32' E 009°58'1 1.6
2017-Sep-17 03:30N 53°33' E 009°57'2 4.9
2017-Sep-17 03:00N 53°33' E 009°53'4 8.2
2017-Sep-17 02:31N 53°34' E 009°46'5 9.8
2017-Sep-17 02:01N 53°35' E 009°38'611.7
2017-Sep-17 01:30N 53°39' E 009°31'510.5
2017-Sep-17 01:01N 53°43' E 009°28'611.7
2017-Sep-17 00:30N 53°48' E 009°22'713.5
2017-Sep-17 00:00N 53°53' E 009°13'5 9.8
2017-Sep-16 23:31N 53°52' E 009°05'611.9
2017-Sep-16 23:00N 53°51' E 008°56'611.8
2017-Sep-16 22:30N 53°51' E 008°46'611.9
2017-Sep-16 22:00N 53°56' E 008°40'817.0
2017-Sep-16 21:30N 53°59' E 008°26'917.6
2017-Sep-16 21:00N 53°60' E 008°11'713.6
2017-Sep-16 20:31N 53°58' E 007°60'814.9
2017-Sep-16 20:00N 53°57' E 007°47'816.2
2017-Sep-16 19:30N 53°55' E 007°34'816.2
2017-Sep-16 18:59N 53°53' E 007°20'2316.5
2017-Sep-16 17:37N 53°48' E 006°43'517.0
2017-Sep-16 17:17N 53°47' E 006°34'717.3
2017-Sep-16 16:52N 53°45' E 006°22'3117.6
2017-Sep-16 15:08N 53°36' E 005°33'218.3
2017-Sep-16 15:00N 53°35' E 005°29'919.1
2017-Sep-16 14:31N 53°32' E 005°14'1020.5
2017-Sep-16 14:01N 53°29' E 004°57'1020.9
2017-Sep-16 13:31N 53°24' E 004°42'1122.0
2017-Sep-16 13:00N 53°14' E 004°34'1122.2
2017-Sep-16 12:30N 53°04' E 004°24'1121.6
2017-Sep-16 12:00N 52°54' E 004°16'1121.3
2017-Sep-16 11:30N 52°45' E 004°08'918.0
2017-Sep-16 11:01N 52°37' E 004°15'1019.5
2017-Sep-16 10:30N 52°31' E 004°27'611.4
2017-Sep-16 10:00N 52°28' E 004°36'1 1.1
2017-Sep-16 09:30N 52°28' E 004°36'1 2.8
2017-Sep-16 09:00N 52°28' E 004°39'3 6.8
2017-Sep-16 08:31N 52°26' E 004°43'4 7.3
2017-Sep-16 08:00N 52°25' E 004°49'3 6.2
2017-Sep-16 07:31N 52°24' E 004°54'1 2.3
2017-Sep-16 07:01N 52°23' E 004°55'0 0.0
2017-Sep-16 06:31N 52°23' E 004°55'0 0.0
2017-Sep-16 06:01N 52°23' E 004°55'0 0.0
2017-Sep-16 05:30N 52°23' E 004°55'0 0.0
2017-Sep-16 05:00N 52°23' E 004°55'0 0.0
2017-Sep-16 04:31N 52°23' E 004°55'0 0.0
2017-Sep-16 04:01N 52°23' E 004°55'0 0.0
2017-Sep-16 03:31N 52°23' E 004°55'0 0.0
2017-Sep-16 03:01N 52°23' E 004°55'0 0.0
2017-Sep-16 02:31N 52°23' E 004°55'0 0.0
2017-Sep-16 02:00N 52°23' E 004°55'0 0.0
2017-Sep-16 01:31N 52°23' E 004°55'0 0.0
2017-Sep-16 01:01N 52°23' E 004°55'0 0.0
2017-Sep-16 00:31N 52°23' E 004°55'0 0.0
2017-Sep-16 00:01N 52°23' E 004°55'0 0.0
2017-Sep-15 23:31N 52°23' E 004°55'0 0.0
2017-Sep-15 23:01N 52°23' E 004°55'0 0.0
2017-Sep-15 22:31N 52°23' E 004°55'0 0.0
2017-Sep-15 22:01N 52°23' E 004°55'0 0.0
2017-Sep-15 21:31N 52°23' E 004°55'0 0.0
2017-Sep-15 21:01N 52°23' E 004°55'0 0.0
2017-Sep-15 20:31N 52°23' E 004°55'0 0.0
2017-Sep-15 20:01N 52°23' E 004°55'0 0.0
2017-Sep-15 19:31N 52°23' E 004°55'0 0.0
2017-Sep-15 19:01N 52°23' E 004°55'0 0.0
2017-Sep-15 18:30N 52°23' E 004°55'0 0.0
2017-Sep-15 18:00N 52°23' E 004°55'0 0.0
2017-Sep-15 17:31N 52°23' E 004°55'0 0.0
2017-Sep-15 17:00N 52°23' E 004°55'0 0.0
2017-Sep-15 16:30N 52°23' E 004°55'0 0.0
2017-Sep-15 16:00N 52°23' E 004°55'0 0.0
2017-Sep-15 15:31N 52°23' E 004°55'0 0.0
2017-Sep-15 15:01N 52°23' E 004°55'0 0.0
2017-Sep-15 14:31N 52°23' E 004°55'0 0.0
2017-Sep-15 14:01N 52°23' E 004°55'0 0.0
2017-Sep-15 13:31N 52°23' E 004°55'0 0.0
2017-Sep-15 13:01N 52°23' E 004°55'0 0.0
2017-Sep-15 12:31N 52°23' E 004°55'0 0.0
2017-Sep-15 12:01N 52°23' E 004°55'0 0.0
2017-Sep-15 11:31N 52°23' E 004°55'0 0.0
2017-Sep-15 11:01N 52°23' E 004°55'0 0.0
2017-Sep-15 10:30N 52°23' E 004°55'0 0.0
2017-Sep-15 10:01N 52°23' E 004°55'0 0.0
2017-Sep-15 09:30N 52°23' E 004°55'0 0.0
2017-Sep-15 09:01N 52°23' E 004°55'0 0.0
2017-Sep-15 08:30N 52°23' E 004°55'0 1.0
2017-Sep-15 08:01N 52°23' E 004°56'2 4.0
2017-Sep-15 07:30N 52°24' E 004°53'3 6.4
2017-Sep-15 07:00N 52°25' E 004°48'4 7.1
2017-Sep-15 06:31N 52°26' E 004°42'4 7.4
2017-Sep-15 06:01N 52°28' E 004°37'0 0.9
2017-Sep-15 05:31N 52°28' E 004°36'3 5.3
2017-Sep-15 05:00N 52°28' E 004°32'713.0
2017-Sep-15 04:30N 52°28' E 004°21'510.6
2017-Sep-15 04:00N 52°29' E 004°13'611.5
2017-Sep-15 03:31N 52°28' E 004°03'611.2
2017-Sep-15 03:01N 52°26' E 003°55'510.7
2017-Sep-15 02:31N 52°26' E 003°46'612.8
2017-Sep-15 02:01N 52°24' E 003°36'5413.6
2017-Sep-14 22:01N 51°42' E 002°41'014.1
2017-Sep-14 22:00N 51°42' E 002°41'714.2
2017-Sep-14 21:31N 51°35' E 002°43'816.4
2017-Sep-14 21:01N 51°27' E 002°43'4 8.0
2017-Sep-14 20:30N 51°26' E 002°49'815.8
2017-Sep-14 20:00N 51°25' E 003°02'714.4
2017-Sep-14 19:31N 51°21' E 003°12'1 1.6
2017-Sep-14 18:59N 51°20' E 003°12'0 0.0
2017-Sep-14 18:29N 51°20' E 003°12'0 0.0
2017-Sep-14 17:59N 51°20' E 003°12'0 0.0
2017-Sep-14 17:29N 51°20' E 003°12'0 0.0
2017-Sep-14 16:59N 51°20' E 003°12'0 0.0
2017-Sep-14 16:29N 51°20' E 003°12'0 0.0
2017-Sep-14 15:59N 51°20' E 003°12'0 0.0
2017-Sep-14 15:29N 51°20' E 003°12'0 0.0
2017-Sep-14 14:59N 51°20' E 003°12'0 0.0
2017-Sep-14 14:29N 51°20' E 003°12'0 0.0
2017-Sep-14 13:59N 51°20' E 003°12'0 0.0
2017-Sep-14 13:29N 51°20' E 003°12'0 0.0
2017-Sep-14 12:59N 51°20' E 003°12'0 0.0
2017-Sep-14 12:28N 51°20' E 003°12'0 0.0
2017-Sep-14 11:58N 51°20' E 003°12'0 0.0
2017-Sep-14 11:28N 51°20' E 003°12'0 0.0
2017-Sep-14 10:59N 51°20' E 003°12'0 0.0
2017-Sep-14 10:28N 51°20' E 003°12'0 0.0
2017-Sep-14 09:58N 51°20' E 003°12'0 0.0
2017-Sep-14 09:31N 51°20' E 003°12'0 0.8
2017-Sep-14 09:01N 51°21' E 003°12'612.8
2017-Sep-14 08:30N 51°24' E 003°04'918.4
2017-Sep-14 08:00N 51°25' E 002°49'4 7.8
2017-Sep-14 07:31N 51°24' E 002°43'1 2.6
2017-Sep-14 07:00N 51°23' E 002°42'2 3.4
2017-Sep-14 06:31N 51°22' E 002°41'5 9.9
2017-Sep-14 06:01N 51°22' E 002°33'1223.0
2017-Sep-14 05:31N 51°18' E 002°16'1223.7
2017-Sep-14 05:01N 51°12' E 001°60'1223.6
2017-Sep-14 04:30N 51°06' E 001°44'1224.0
2017-Sep-14 04:01N 50°57' E 001°31'1123.0
2017-Sep-14 03:31N 50°47' E 001°23'1322.8
2017-Sep-14 02:57N 50°36' E 001°10'1023.3
2017-Sep-14 02:30N 50°31' E 000°57'1223.7
2017-Sep-14 01:59N 50°26' E 000°39'1123.9
2017-Sep-14 01:31N 50°22' E 000°22'1224.0
2017-Sep-14 01:01N 50°19' E 000°04'1224.0
2017-Sep-14 00:30N 50°17' W 000°15'1121.3
2017-Sep-14 00:00N 50°19' W 000°31'1223.0
2017-Sep-13 23:29N 50°28' W 000°43'1122.5
2017-Sep-13 23:01N 50°37' W 000°53'815.9
2017-Sep-13 22:31N 50°43' W 001°01'918.3
2017-Sep-13 22:01N 50°46' W 001°14'5 9.3
2017-Sep-13 21:30N 50°50' W 001°19'510.3
2017-Sep-13 21:00N 50°53' W 001°25'0 1.0
2017-Sep-13 20:30N 50°54' W 001°25'0 0.0
2017-Sep-13 20:00N 50°54' W 001°25'0 0.0
2017-Sep-13 19:30N 50°54' W 001°25'0 0.0
2017-Sep-13 19:00N 50°54' W 001°25'0 0.0
2017-Sep-13 18:30N 50°54' W 001°25'0 0.0
2017-Sep-13 18:00N 50°54' W 001°25'0 0.0
2017-Sep-13 17:30N 50°54' W 001°25'0 0.0
2017-Sep-13 17:00N 50°54' W 001°25'0 0.0
2017-Sep-13 16:30N 50°54' W 001°25'0 0.0
2017-Sep-13 15:57N 50°54' W 001°25'0 0.0
2017-Sep-13 15:30N 50°54' W 001°25'0 0.0
2017-Sep-13 15:00N 50°54' W 001°25'0 0.0
2017-Sep-13 14:30N 50°54' W 001°25'0 0.0
2017-Sep-13 14:00N 50°54' W 001°25'0 0.0
2017-Sep-13 13:30N 50°54' W 001°25'0 0.0
2017-Sep-13 13:00N 50°54' W 001°25'0 0.0
2017-Sep-13 12:30N 50°54' W 001°25'0 0.0
2017-Sep-13 12:00N 50°54' W 001°25'0 0.0
2017-Sep-13 11:30N 50°54' W 001°25'0 0.0
2017-Sep-13 11:00N 50°54' W 001°25'0 0.0
2017-Sep-13 10:30N 50°54' W 001°25'0 0.0
2017-Sep-13 10:00N 50°54' W 001°25'0 0.2
2017-Sep-13 09:30N 50°54' W 001°25'2 3.4
2017-Sep-13 09:00N 50°53' W 001°23'5 9.8
2017-Sep-13 08:30N 50°49' W 001°18'4 8.5
2017-Sep-13 08:01N 50°46' W 001°13'816.8
2017-Sep-13 07:30N 50°43' W 001°01'612.9
2017-Sep-13 07:00N 50°37' W 000°58'715.0
2017-Sep-13 06:31N 50°32' W 000°50'816.1
2017-Sep-13 06:01N 50°27' W 000°39'917.4
2017-Sep-13 05:31N 50°28' W 000°26'1019.2
2017-Sep-13 05:01N 50°30' W 000°11'1020.3
2017-Sep-13 04:31N 50°32' E 000°05'1019.4
2017-Sep-13 04:01N 50°35' E 000°19'918.3
2017-Sep-13 03:31N 50°38' E 000°33'918.0
2017-Sep-13 03:01N 50°43' E 000°45'917.9
2017-Sep-13 02:31N 50°48' E 000°56'917.9
2017-Sep-13 02:01N 50°53' E 001°07'917.9
2017-Sep-13 01:30N 50°60' E 001°18'919.1
2017-Sep-13 01:01N 51°05' E 001°30'1020.8
2017-Sep-13 00:31N 51°12' E 001°42'1020.9
2017-Sep-13 00:01N 51°21' E 001°51'1021.0
2017-Sep-12 23:31N 51°30' E 002°00'1121.1
2017-Sep-12 23:01N 51°37' E 002°13'60116.9
2017-Sep-12 22:30N 52°04' E 003°39'0 0.0
2017-Sep-12 22:00N 52°04' E 003°39'0 0.0
2017-Sep-12 21:30N 52°04' E 003°39'0 0.0
2017-Sep-12 21:00N 52°04' E 003°39'0 0.0
2017-Sep-12 20:29N 52°04' E 003°39'0 0.0
2017-Sep-12 20:00N 52°04' E 003°39'612.5
2017-Sep-12 19:30N 52°04' E 003°49'612.8
2017-Sep-12 19:00N 52°01' E 003°58'714.4
2017-Sep-12 18:30N 51°58' E 004°09'611.5
2017-Sep-12 18:00N 51°54' E 004°16'5 9.0
2017-Sep-12 17:30N 51°54' E 004°23'3 6.9
2017-Sep-12 17:00N 51°54' E 004°29'0 0.0
2017-Sep-12 16:30N 51°54' E 004°29'0 0.0
2017-Sep-12 16:00N 51°54' E 004°29'0 0.0
2017-Sep-12 15:30N 51°54' E 004°29'0 0.0
2017-Sep-12 15:00N 51°54' E 004°29'0 0.0
2017-Sep-12 14:30N 51°54' E 004°29'0 0.0
2017-Sep-12 14:00N 51°54' E 004°29'0 0.0
2017-Sep-12 13:30N 51°54' E 004°29'0 0.0
2017-Sep-12 13:00N 51°54' E 004°29'0 0.0
2017-Sep-12 12:30N 51°54' E 004°29'0 0.0
2017-Sep-12 12:00N 51°54' E 004°29'0 0.0
2017-Sep-12 11:30N 51°54' E 004°29'0 0.0
2017-Sep-12 11:00N 51°54' E 004°29'0 0.0
2017-Sep-12 10:30N 51°54' E 004°29'0 0.0
2017-Sep-12 10:00N 51°54' E 004°29'0 0.0
2017-Sep-12 09:30N 51°54' E 004°29'0 0.0
2017-Sep-12 09:00N 51°54' E 004°29'0 0.0
2017-Sep-12 08:30N 51°54' E 004°29'0 0.0
2017-Sep-12 08:00N 51°54' E 004°29'0 0.0
2017-Sep-12 07:30N 51°54' E 004°29'0 0.0
2017-Sep-12 07:00N 51°54' E 004°29'0 0.0
2017-Sep-12 06:30N 51°54' E 004°29'0 0.0
2017-Sep-12 06:00N 51°54' E 004°29'0 0.0
2017-Sep-12 05:30N 51°54' E 004°29'2 3.6
2017-Sep-12 05:00N 51°54' E 004°26'4 8.2
2017-Sep-12 04:30N 51°54' E 004°19'612.4
2017-Sep-12 04:00N 51°57' E 004°11'714.1
2017-Sep-12 03:31N 51°60' E 004°01'713.0
2017-Sep-12 03:00N 52°01' E 003°50'4 8.8
2017-Sep-12 02:30N 52°05' E 003°46'  

Dump ship's entire track history